Aladdin, Wyoming
Current Conditions -  °F | °C
As of 1:35 AM on Friday 31 Oct 2014 (Local Time) from KW43 Reporting Station
Moderate Fog Moderate Fog  
Wind Chill: 30°   Ceiling: 100
Heat Index: 30°   Visibility: 0mi
Dew Point: 28°   Wind: 0mph
Humidity: 93%   Direction: NA
Pressure: 30.35"   Gusts: NA
Location:  44.64°N, 104.18°W
Report Text: KW43 310735Z AUTO 00000KT M1/4SM FZFG OVC001 M01/M02 A3035 RMK AO2
Loading
Personal Weather Stations






























Interactive Weather Map
Tropical Storm Tracking
New forecast layout! Learn more

10-Day Weather Forecast

Advertisements
Track Severe Weather on mobile